| Min | Max / Total | Moy | |
|---|---|---|---|
| T° | 13.4°c | 14.6°c | 14°c (ecart -2.6°) |
| Vent moyen | - | 9 km/h | 2.5 km/h |
| Vent rafale | - | 16 km/h | 4.7 km/h |
| Pression | 1011.1 hPa | 1012.8 hPa | 1011.7 hPa |
| Précipitations | - | 12.2 mm | - |
Actuellement
T°ext 14.2°C
H% ext 97 %
Vent 2 km/h / Maxi 3 km/h NNE
Pression 1011.6 hPa
Donnée détaillées (10 min)
| Date | Tempé | Tempé. INT | Tempé. rosée | H% | Vmoy.(km/h) | Rafales (km/h) | Dir. vent | Intensité pluie (L/m²/h) | Tot pluie 24h (L/m²) | Pression (hPa) |
|---|---|---|---|---|---|---|---|---|---|---|
| 10:10 | 14.2 ° | 20.1 ° | 13.7 ° | 97 % | 2 | 3 | NNE | 1.0 | 9.1 | 1011.6 |
| 10:00 | 14.1 ° | 20.1 ° | 13.6 ° | 97 % | 3 | 5 | NNE | 0.8 | 8.6 | 1011.6 |
| 09:50 | 14.1 ° | 20.1 ° | 13.6 ° | 97 % | 1 | 3 | ENE | 0.3 | 8.4 | 1011.7 |
| 09:40 | 14.1 ° | 20.1 ° | 13.6 ° | 97 % | 0 | - | ENE | 0.0 | 8.1 | 1011.6 |
| 09:30 | 14.0 ° | 20.0 ° | 13.5 ° | 97 % | 0 | - | ENE | 0.0 | 8.1 | 1011.6 |
| 09:20 | 14.0 ° | 20.0 ° | 13.5 ° | 97 % | 2 | 3 | ENE | 0.0 | 8.1 | 1011.5 |
| 09:10 | 14.1 ° | 20.0 ° | 13.6 ° | 97 % | 1 | 3 | ENE | 0.0 | 8.1 | 1011.6 |
| 09:00 | 14.0 ° | 19.8 ° | 13.5 ° | 97 % | 0 | - | ENE | 0.0 | 8.1 | 1011.5 |
| 08:50 | 14.0 ° | 19.8 ° | 13.5 ° | 97 % | 1 | 3 | ENE | 0.0 | 8.1 | 1011.5 |
| 08:40 | 14.0 ° | 19.8 ° | 13.5 ° | 97 % | 2 | 3 | ENE | 0.0 | 8.1 | 1011.5 |
| 08:30 | 14.0 ° | 19.8 ° | 13.5 ° | 97 % | 0 | - | ENE | 0.0 | 8.1 | 1011.5 |
| 08:20 | 13.8 ° | 19.8 ° | 13.3 ° | 97 % | 1 | 3 | ENE | 0.0 | 8.1 | 1011.5 |
| 08:10 | 13.9 ° | 19.7 ° | 13.4 ° | 97 % | 3 | 5 | E | 0.0 | 8.1 | 1011.5 |
| 08:00 | 13.8 ° | 19.7 ° | 13.3 ° | 97 % | 2 | 5 | E | 0.0 | 8.1 | 1011.4 |
| 07:50 | 13.7 ° | 19.6 ° | 13.2 ° | 97 % | 3 | 5 | ENE | 0.0 | 8.1 | 1011.3 |
| 07:40 | 13.7 ° | 19.7 ° | 13.2 ° | 97 % | 3 | 5 | E | 0.0 | 8.1 | 1011.3 |
| 07:30 | 13.6 ° | 19.7 ° | 13.1 ° | 97 % | 1 | 3 | ENE | 0.0 | 8.1 | 1011.3 |
| 07:20 | 13.6 ° | 19.7 ° | 13.1 ° | 97 % | 0 | - | ESE | 0.2 | 8.1 | 1011.2 |
| 07:10 | 13.6 ° | 19.7 ° | 13.1 ° | 97 % | 0 | - | ESE | 0.2 | 8.1 | 1011.2 |
| 07:00 | 13.6 ° | 19.7 ° | 13.1 ° | 97 % | 0 | - | ESE | 0.2 | 8.1 | 1011.2 |
| 06:50 | 13.6 ° | 19.7 ° | 13.1 ° | 97 % | 0 | - | ESE | 0.5 | 8.1 | 1011.2 |
| 06:40 | 13.6 ° | 19.7 ° | 13.1 ° | 97 % | 0 | - | ESE | 0.5 | 8.1 | 1011.2 |
| 06:30 | 13.6 ° | 19.7 ° | 13.1 ° | 97 % | 0 | - | ESE | 0.5 | 8.1 | 1011.2 |
| 06:20 | 13.5 ° | 19.8 ° | 13.0 ° | 97 % | 0 | - | ESE | 0.3 | 7.9 | 1011.1 |
| 06:10 | 13.5 ° | 19.8 ° | 13.0 ° | 97 % | 0 | - | ESE | 0.3 | 7.9 | 1011.3 |
| 06:00 | 13.5 ° | 19.8 ° | 13.0 ° | 97 % | 0 | - | ESE | 0.3 | 7.9 | 1011.3 |
| 05:50 | 13.5 ° | 19.8 ° | 13.0 ° | 97 % | 0 | - | ESE | 0.0 | 7.6 | 1011.4 |
| 05:40 | 13.5 ° | 19.8 ° | 13.0 ° | 97 % | 0 | - | ESE | 0.0 | 7.6 | 1011.5 |
| 05:30 | 13.4 ° | 19.9 ° | 12.9 ° | 97 % | 0 | - | ESE | 0.0 | 7.6 | 1011.4 |
| 05:20 | 13.5 ° | 19.9 ° | 13.0 ° | 97 % | 0 | - | ESE | 0.5 | 7.6 | 1011.4 |
| 05:10 | 13.5 ° | 19.9 ° | 13.0 ° | 97 % | 0 | 3 | ESE | 1.0 | 7.6 | 1011.5 |
| 05:00 | 13.5 ° | 19.9 ° | 13.0 ° | 97 % | 2 | 5 | ESE | 1.8 | 7.6 | 1011.4 |
| 04:50 | 13.5 ° | 19.9 ° | 13.0 ° | 97 % | 6 | 10 | E | 2.8 | 7.6 | 1011.2 |
| 04:40 | 13.5 ° | 19.9 ° | 13.0 ° | 97 % | 5 | 13 | ENE | 3.8 | 7.6 | 1011.2 |
| 04:30 | 13.6 ° | 19.9 ° | 13.1 ° | 97 % | 5 | 10 | ENE | 4.6 | 7.6 | 1011.3 |
| 04:20 | 13.6 ° | 20.0 ° | 13.1 ° | 97 % | 8 | 16 | ENE | 4.8 | 7.1 | 1011.2 |
| 04:10 | 13.6 ° | 20.0 ° | 13.1 ° | 97 % | 7 | 10 | ENE | 4.6 | 6.6 | 1011.2 |
| 04:00 | 13.6 ° | 20.0 ° | 13.1 ° | 97 % | 7 | 10 | ENE | 4.1 | 5.6 | 1011.4 |
| 03:50 | 13.7 ° | 20.0 ° | 13.2 ° | 97 % | 2 | 5 | E | 3.6 | 4.6 | 1011.6 |
| 03:40 | 13.7 ° | 20.0 ° | 13.2 ° | 97 % | 4 | 5 | E | 3.0 | 3.8 | 1011.6 |
| 03:30 | 13.8 ° | 20.1 ° | 13.3 ° | 97 % | 3 | 5 | E | 2.0 | 2.8 | 1011.7 |
| 03:20 | 13.8 ° | 20.1 ° | 13.3 ° | 97 % | 2 | 5 | ENE | 1.8 | 2.3 | 1011.7 |
| 03:10 | 13.8 ° | 20.1 ° | 13.3 ° | 97 % | 3 | 5 | ENE | 1.3 | 1.8 | 1011.8 |
| 03:00 | 13.8 ° | 20.1 ° | 13.3 ° | 97 % | 3 | 5 | E | 1.0 | 1.5 | 1011.9 |
| 02:50 | 13.9 ° | 20.1 ° | 13.4 ° | 97 % | 3 | 5 | ESE | 0.5 | 1.0 | 1012.0 |
| 02:40 | 13.8 ° | 20.2 ° | 13.3 ° | 97 % | 1 | 3 | S | 0.3 | 0.8 | 1012.0 |
| 02:30 | 13.9 ° | 20.2 ° | 13.4 ° | 97 % | 2 | 5 | S | 0.3 | 0.8 | 1012.1 |
| 02:20 | 13.9 ° | 20.2 ° | 13.4 ° | 97 % | 1 | 5 | SSE | 0.0 | 0.5 | 1012.1 |
| 02:10 | 13.9 ° | 20.2 ° | 13.4 ° | 97 % | 3 | 5 | E | 0.0 | 0.5 | 1012.1 |
| 02:00 | 13.9 ° | 20.2 ° | 13.4 ° | 97 % | 5 | 8 | SE | 0.0 | 0.5 | 1012.2 |
| 01:50 | 13.9 ° | 20.3 ° | 13.4 ° | 97 % | 4 | 8 | SE | 0.0 | 0.5 | 1012.2 |
| 01:40 | 13.9 ° | 20.3 ° | 13.4 ° | 97 % | 3 | 8 | SE | 0.2 | 0.5 | 1012.2 |
| 01:30 | 14.0 ° | 20.3 ° | 13.5 ° | 97 % | 3 | 8 | ESE | 0.2 | 0.5 | 1012.3 |
| 01:20 | 14.1 ° | 20.4 ° | 13.6 ° | 97 % | 3 | 10 | SE | 0.2 | 0.5 | 1012.4 |
| 01:10 | 14.1 ° | 20.4 ° | 13.6 ° | 97 % | 5 | 10 | ESE | 0.5 | 0.5 | 1012.5 |
| 01:00 | 14.3 ° | 20.4 ° | 13.8 ° | 97 % | 6 | 10 | E | 0.5 | 0.5 | 1012.6 |
| 00:50 | 14.4 ° | 20.5 ° | 13.9 ° | 97 % | 6 | 10 | E | 0.5 | 0.5 | 1012.5 |
| 00:40 | 14.4 ° | 20.5 ° | 13.9 ° | 97 % | 9 | 10 | E | 0.3 | 0.3 | 1012.6 |
| 00:30 | 14.5 ° | 20.6 ° | 14.0 ° | 97 % | 6 | 10 | E | 0.6 | 0.3 | 1012.8 |
| 00:20 | 14.6 ° | 20.6 ° | 14.1 ° | 97 % | 5 | 8 | ENE | 0.6 | 0.0 | 1012.7 |
| 00:10 | 14.6 ° | 20.7 ° | 14.1 ° | 97 % | 5 | 8 | ENE | 0.3 | 12.2 | 1012.7 |
Donnée détaillées horaires
| Date | Tempé min. | Tempé max. | Max solar Rad (W/m2). | Tempé. INT | Tempé. rosée | H% | Vmoy.(km/h) | Rafales (km/h) | Dir. vent | Intensité pluie (L/m²/h) | Tot pluie 24h (L/m²) | Pression (hPa) |
|---|---|---|---|---|---|---|---|---|---|---|---|---|
| 10:00 | 14.1 ° | 14.2 ° | 173 | 20.1 ° | 13.6 ° | 97 % | 3 | 5 | NNE | 0.8 | 9.1 | 1011.6 |
| 09:00 | 14.0 ° | 14.1 ° | 102 | 20.0 ° | 13.5 ° | 97 % | 2 | 3 | ENE | 0.0 | 8.4 | 1011.5 |
| 08:00 | 13.8 ° | 14.0 ° | 68 | 19.8 ° | 13.3 ° | 97 % | 3 | 5 | E | 0.0 | 8.1 | 1011.4 |
| 07:00 | 13.6 ° | 13.7 ° | 62 | 19.7 ° | 13.1 ° | 97 % | 3 | 5 | ESE | 0.2 | 8.1 | 1011.2 |
| 06:00 | 13.5 ° | 13.6 ° | 1 | 19.8 ° | 13.0 ° | 97 % | 0 | - | ESE | 0.3 | 8.1 | 1011.3 |
| 05:00 | 13.4 ° | 13.5 ° | 0 | 19.9 ° | 13.0 ° | 97 % | 2 | 5 | ESE | 1.8 | 7.6 | 1011.4 |
| 04:00 | 13.5 ° | 13.6 ° | 0 | 20.0 ° | 13.1 ° | 97 % | 8 | 16 | ENE | 4.1 | 7.6 | 1011.4 |
| 03:00 | 13.7 ° | 13.8 ° | 0 | 20.1 ° | 13.3 ° | 97 % | 4 | 5 | E | 1.0 | 4.6 | 1011.9 |
| 02:00 | 13.8 ° | 13.9 ° | 0 | 20.2 ° | 13.4 ° | 97 % | 5 | 8 | SE | 0.0 | 1.0 | 1012.2 |
| 01:00 | 13.9 ° | 14.3 ° | 0 | 20.4 ° | 13.8 ° | 97 % | 6 | 10 | E | 0.5 | 0.5 | 1012.6 |
| 00:00 | 14.4 ° | 14.6 ° | 0 | 20.6 ° | 14.1 ° | 97 % | 9 | 10 | ENE | 0.5 | 12.2 | 1012.8 |
Données mensuelles (Mai 2026)
| Jour | Tempé. min | Tempé. max | Tempé. moy | Tempé. IN moy | Ecart saisonnier | Vent moy. max jour | Rafale max jour | Tot. pluie jour |
|---|---|---|---|---|---|---|---|---|
| V01 | 10.6° | 23.7° | 17.2° | 21.7° | +0.5 °C | 21 km/h | 32 km/h | 1.3 mm |
| S02 | 12.0° | 22.6° | 17.3° | 20.8° | +0.7 °C | 21 km/h | 40 km/h | 6.9 mm |
| D03 | 12.2° | 21.7° | 17° | 20.3° | +0.3 °C | 18 km/h | 32 km/h | 12.2 mm |
| L04 | 13.4° | 14.6° | 14° | 20° | -2.6 °C | 9 km/h | 16 km/h | 12.2 mm |
Moy Tmin 12.1°C - Moy Tmax 20.7°C
Tmin 10.6°C - Tmax 23.7°C
Température moyenne mensuelle : 16.4 °C (ecart saisonnier -0.2°)
Rafale Maxi : 40.3 km/h
Moyenne vent : 17.18 km/h
Total précipitations : 32.6 mm (-38.5 mm)